KSSF/SSF METAR and TAF weather

Enter ICAO airport designator
Station Type Date Time Source
KSSF METAR 2018/12/13 08:53 UTC NOAA

KSSF 130853Z AUTO 00000KT 4SM BR BKN002 12/11 A2974 RMK AO2 SLP068 T01220111 55014 $


Station Type Date Time Source
KSSF Decoded METAR 2018/12/13 08:53 UTC NOAA

SAN ANTONIO STINSON MUNI, TX, United States (KSSF) 29-20N 098-28W 176M
Dec 13, 2018 - 03:53 AM EST / 2018.12.13 0853 UTC
Wind: Calm:0
Visibility: 4 mile(s):0
Sky conditions: mostly cloudy
Weather: mist
Temperature: 54.0 F (12.2 C)
Dew Point: 52.0 F (11.1 C)
Relative Humidity: 92%
Pressure (altimeter): 29.74 in. Hg (1007 hPa)
Pressure tendency: 0.04 inches (1.4 hPa) lower than three hours ago
ob: KSSF 130853Z AUTO 00000KT 4SM BR BKN002 12/11 A2974 RMK AO2 SLP068 T01220111 55014
cycle: 9

Station Type Date Time Source
KSSF TAF 2018/12/13 09:45 UTC NOAA

TAF
AMD KSSF 130843Z 1309/1406 15003KT 2SM BR BKN002
FM131100 24006KT P6SM SCT015 BKN060
FM131700 27012G22KT P6SM SCT100
FM132000 29021G31KT P6SM SCT100
FM140400 31010G20KT P6SM BKN100


Example: see airport list